Time;durP1;ratioP1;P1;durP2;ratioP2;P2;SDS_P1;SDS_P2;PMS_P1;PMS_P2;Temp;Humidity;BMP_temperature;BMP_pressure;BME280_temperature;BME280_humidity;BME280_pressure;Samples;Min_cycle;Max_cycle;Signal;HPM_P1;HPM_P2
2021/12/23 00:01:42;;;;;;;30.42;11.40;;;;;;;;;;4892850;29;20068;-83
2021/12/23 00:04:12;;;;;;;24.95;11.13;;;;;;;;;;4873729;29;20393;-83
2021/12/23 00:06:39;;;;;;;31.38;10.98;;;;;;;;;;4891715;29;20496;-83
2021/12/23 00:09:05;;;;;;;25.88;10.50;;;;;;;;;;4874884;29;20033;-83
2021/12/23 00:11:32;;;;;;;29.63;11.20;;;;;;;;;;4875460;29;20045;-83
2021/12/23 00:14:07;;;;;;;28.67;11.35;;;;;;;;;;4877589;29;20029;-82
2021/12/23 00:16:43;;;;;;;25.38;11.23;;;;;;;;;;4873882;29;20043;-82
2021/12/23 00:19:24;;;;;;;25.60;11.57;;;;;;;;;;4873716;29;20487;-83
2021/12/23 00:24:35;;;;;;;24.05;11.48;;;;;;;;;;4888852;29;20136;-83
2021/12/23 00:27:02;;;;;;;20.70;10.95;;;;;;;;;;4877580;29;20515;-83
2021/12/23 00:29:28;;;;;;;21.65;10.38;;;;;;;;;;4890015;29;20449;-82
2021/12/23 00:31:54;;;;;;;24.83;11.18;;;;;;;;;;4874893;29;20065;-83
2021/12/23 00:34:20;;;;;;;27.52;11.63;;;;;;;;;;4875646;29;20021;-83
2021/12/23 00:36:47;;;;;;;29.75;11.00;;;;;;;;;;4876168;29;20044;-83
2021/12/23 00:39:14;;;;;;;26.23;11.73;;;;;;;;;;4873846;29;20029;-83
2021/12/23 00:41:45;;;;;;;25.85;11.32;;;;;;;;;;4876082;29;20060;-82
2021/12/23 00:44:12;;;;;;;26.65;11.00;;;;;;;;;;4876995;29;20028;-82
2021/12/23 00:46:38;;;;;;;28.63;12.30;;;;;;;;;;4874271;29;20085;-83
2021/12/23 00:49:05;;;;;;;25.08;11.30;;;;;;;;;;4878673;29;20449;-83
2021/12/23 00:51:32;;;;;;;26.20;11.07;;;;;;;;;;4886724;29;20052;-82
2021/12/23 00:54:04;;;;;;;24.63;11.40;;;;;;;;;;4876794;29;20032;-82
2021/12/23 00:56:37;;;;;;;25.67;12.32;;;;;;;;;;4886564;29;20466;-83
2021/12/23 00:59:04;;;;;;;28.48;11.90;;;;;;;;;;4888670;29;20037;-83
2021/12/23 01:01:30;;;;;;;28.05;11.68;;;;;;;;;;4886594;29;20037;-82
2021/12/23 01:03:56;;;;;;;24.92;11.57;;;;;;;;;;4889720;29;20555;-83
2021/12/23 01:06:22;;;;;;;33.05;13.77;;;;;;;;;;4872458;29;20029;-82
2021/12/23 01:08:48;;;;;;;29.40;12.77;;;;;;;;;;4885766;29;20033;-83
2021/12/23 01:11:14;;;;;;;30.60;12.18;;;;;;;;;;4891036;29;20032;-82
2021/12/23 01:14:00;;;;;;;25.65;12.45;;;;;;;;;;4873671;29;20127;-83
2021/12/23 01:16:47;;;;;;;31.55;12.18;;;;;;;;;;4876957;29;20024;-82
2021/12/23 01:19:12;;;;;;;25.10;11.75;;;;;;;;;;4887954;29;20039;-82
2021/12/23 01:21:38;;;;;;;25.05;12.13;;;;;;;;;;4870471;29;20032;-82
2021/12/23 01:24:05;;;;;;;32.85;13.35;;;;;;;;;;4873687;29;20037;-83
2021/12/23 01:26:31;;;;;;;28.40;12.02;;;;;;;;;;4874184;29;20040;-83
2021/12/23 01:28:58;;;;;;;26.48;12.88;;;;;;;;;;4888094;29;20112;-82
2021/12/23 01:31:26;;;;;;;27.73;13.52;;;;;;;;;;4869439;29;20037;-83
2021/12/23 01:33:52;;;;;;;28.40;12.80;;;;;;;;;;4887323;29;20512;-82
2021/12/23 01:36:18;;;;;;;27.60;13.15;;;;;;;;;;4872537;29;20391;-83
2021/12/23 01:38:45;;;;;;;28.38;13.27;;;;;;;;;;4870850;29;20028;-83
2021/12/23 01:41:24;;;;;;;24.52;12.93;;;;;;;;;;4892705;28;20051;-83
2021/12/23 01:43:57;;;;;;;27.40;12.43;;;;;;;;;;4884992;29;20048;-82
2021/12/23 01:46:23;;;;;;;24.60;12.05;;;;;;;;;;4908294;29;20020;-83
2021/12/23 01:48:50;;;;;;;29.25;13.00;;;;;;;;;;4917376;29;20032;-82
2021/12/23 01:51:16;;;;;;;27.70;12.32;;;;;;;;;;4922639;29;20373;-82
2021/12/23 01:53:42;;;;;;;23.15;10.52;;;;;;;;;;4890091;29;20122;-83
2021/12/23 01:56:08;;;;;;;24.50;10.50;;;;;;;;;;4891082;29;20028;-83
2021/12/23 01:58:39;;;;;;;19.08;11.13;;;;;;;;;;4892016;29;20032;-82
2021/12/23 02:01:05;;;;;;;24.85;11.52;;;;;;;;;;4904884;29;20539;-83
2021/12/23 02:03:31;;;;;;;25.40;10.85;;;;;;;;;;4890563;29;20040;-83
2021/12/23 02:05:57;;;;;;;20.15;8.77;;;;;;;;;;4892427;29;20036;-82
2021/12/23 02:08:23;;;;;;;22.67;10.00;;;;;;;;;;4891465;29;20055;-83
2021/12/23 02:10:49;;;;;;;29.27;11.88;;;;;;;;;;4920119;29;20447;-83
2021/12/23 02:13:16;;;;;;;21.30;11.02;;;;;;;;;;4889896;29;20095;-83
2021/12/23 02:15:42;;;;;;;18.75;5.18;;;;;;;;;;4891586;29;20504;-83
2021/12/23 02:18:08;;;;;;;15.82;7.75;;;;;;;;;;4890188;29;20032;-82
2021/12/23 02:20:35;;;;;;;28.67;11.55;;;;;;;;;;4890026;29;20741;-82
2021/12/23 02:23:02;;;;;;;25.55;10.95;;;;;;;;;;4893001;29;20641;-82
2021/12/23 02:25:28;;;;;;;27.83;12.88;;;;;;;;;;4906292;29;20297;-82
2021/12/23 02:27:57;;;;;;;27.90;13.15;;;;;;;;;;4907153;29;20052;-82
2021/12/23 02:30:25;;;;;;;26.60;11.45;;;;;;;;;;4918147;29;20072;-83
2021/12/23 02:32:52;;;;;;;26.77;11.73;;;;;;;;;;4900434;29;20020;-83
2021/12/23 02:35:19;;;;;;;33.88;13.70;;;;;;;;;;4891348;29;20064;-80
2021/12/23 02:37:47;;;;;;;19.55;6.68;;;;;;;;;;4893370;29;20024;-81
2021/12/23 02:40:22;;;;;;;24.65;10.27;;;;;;;;;;4907799;29;20054;-81
2021/12/23 02:42:48;;;;;;;23.73;10.07;;;;;;;;;;4882827;29;20108;-81
2021/12/23 02:45:14;;;;;;;30.83;12.05;;;;;;;;;;4869060;29;20430;-81
2021/12/23 02:47:40;;;;;;;28.23;11.52;;;;;;;;;;4871077;29;20044;-82
2021/12/23 02:50:09;;;;;;;21.88;8.38;;;;;;;;;;4887551;29;20489;-81
2021/12/23 02:52:36;;;;;;;23.63;8.10;;;;;;;;;;4874093;29;20064;-82
2021/12/23 02:55:03;;;;;;;20.58;8.13;;;;;;;;;;4870657;29;20060;-81
2021/12/23 02:57:34;;;;;;;23.50;9.95;;;;;;;;;;4886424;29;20085;-81
2021/12/23 03:00:00;;;;;;;18.92;7.13;;;;;;;;;;4872862;29;20080;-82
2021/12/23 03:02:26;;;;;;;32.47;12.68;;;;;;;;;;4872204;29;20040;-82
2021/12/23 03:04:52;;;;;;;22.00;9.20;;;;;;;;;;4871911;29;20124;-82
2021/12/23 03:07:18;;;;;;;30.88;12.18;;;;;;;;;;4889631;29;20107;-82
2021/12/23 03:09:47;;;;;;;22.27;10.13;;;;;;;;;;4868770;29;20032;-82
2021/12/23 03:12:14;;;;;;;19.77;8.82;;;;;;;;;;4869124;29;20033;-82
2021/12/23 03:14:40;;;;;;;13.93;7.60;;;;;;;;;;4875593;29;20032;-82
2021/12/23 03:17:06;;;;;;;27.25;11.77;;;;;;;;;;4891029;29;20480;-82
2021/12/23 03:19:32;;;;;;;28.20;11.38;;;;;;;;;;4893031;29;20029;-82
2021/12/23 03:21:58;;;;;;;35.88;12.98;;;;;;;;;;4879652;29;20048;-82
2021/12/23 03:24:24;;;;;;;31.48;11.55;;;;;;;;;;4874037;29;20424;-82
2021/12/23 03:26:51;;;;;;;28.20;12.48;;;;;;;;;;4889483;29;20043;-81
2021/12/23 03:29:17;;;;;;;23.83;11.52;;;;;;;;;;4893905;29;20063;-82
2021/12/23 03:31:43;;;;;;;29.25;12.63;;;;;;;;;;4875492;29;20039;-82
2021/12/23 03:34:09;;;;;;;18.42;8.30;;;;;;;;;;4875570;29;20043;-82
2021/12/23 03:36:35;;;;;;;25.75;11.57;;;;;;;;;;4876135;29;20240;-82
2021/12/23 03:39:01;;;;;;;22.85;7.30;;;;;;;;;;4870445;29;20066;-82
2021/12/23 03:41:27;;;;;;;21.73;9.75;;;;;;;;;;4887585;29;20089;-82
2021/12/23 03:43:53;;;;;;;26.38;12.10;;;;;;;;;;4874548;28;20049;-82
2021/12/23 03:46:19;;;;;;;29.20;12.38;;;;;;;;;;4875272;29;20032;-82
2021/12/23 03:48:46;;;;;;;24.30;12.30;;;;;;;;;;4873420;29;20035;-82
2021/12/23 03:51:12;;;;;;;34.30;13.63;;;;;;;;;;4860466;29;20933;-82
2021/12/23 03:53:38;;;;;;;25.67;11.65;;;;;;;;;;4889144;29;20036;-82
2021/12/23 03:56:04;;;;;;;24.35;11.25;;;;;;;;;;4872077;29;20797;-82
2021/12/23 03:58:31;;;;;;;23.25;11.50;;;;;;;;;;4874968;29;20107;-82
2021/12/23 04:00:57;;;;;;;33.08;13.40;;;;;;;;;;4874177;29;20112;-82
2021/12/23 04:03:23;;;;;;;30.40;13.02;;;;;;;;;;4890063;29;20224;-82
2021/12/23 04:05:49;;;;;;;32.70;13.25;;;;;;;;;;4875383;29;20037;-82
2021/12/23 04:08:15;;;;;;;29.23;11.52;;;;;;;;;;4876120;29;20473;-81
2021/12/23 04:10:41;;;;;;;35.30;13.02;;;;;;;;;;4876319;29;20043;-81
2021/12/23 04:13:07;;;;;;;18.75;6.32;;;;;;;;;;4875104;29;20032;-82
2021/12/23 04:15:33;;;;;;;27.80;12.52;;;;;;;;;;4875572;29;20677;-82
2021/12/23 04:17:59;;;;;;;26.08;10.00;;;;;;;;;;4885774;29;20501;-82
2021/12/23 04:20:33;;;;;;;22.20;8.30;;;;;;;;;;4889011;29;20033;-81
2021/12/23 04:22:59;;;;;;;26.90;12.63;;;;;;;;;;4886278;29;20489;-82
2021/12/23 04:25:26;;;;;;;33.85;13.95;;;;;;;;;;4873875;29;20043;-82
2021/12/23 04:27:53;;;;;;;26.27;10.98;;;;;;;;;;4868543;29;20116;-82
2021/12/23 04:30:20;;;;;;;23.95;10.40;;;;;;;;;;4888807;29;20039;-82
2021/12/23 04:32:46;;;;;;;27.42;13.02;;;;;;;;;;4875680;29;20560;-82
2021/12/23 04:35:13;;;;;;;31.35;12.75;;;;;;;;;;4876795;29;20051;-82
2021/12/23 04:37:39;;;;;;;35.40;14.05;;;;;;;;;;4885447;29;20032;-82
2021/12/23 04:40:08;;;;;;;32.17;12.40;;;;;;;;;;4886800;29;20040;-82
2021/12/23 04:42:34;;;;;;;27.45;12.40;;;;;;;;;;4887446;29;20313;-82
2021/12/23 04:45:00;;;;;;;33.97;12.70;;;;;;;;;;4875253;29;20055;-82
2021/12/23 04:47:26;;;;;;;23.30;12.60;;;;;;;;;;4870527;29;20040;-82
2021/12/23 04:49:52;;;;;;;22.77;10.55;;;;;;;;;;4873372;29;20039;-81
2021/12/23 04:52:19;;;;;;;31.80;12.57;;;;;;;;;;4877954;29;20481;-82
2021/12/23 04:54:45;;;;;;;24.08;9.50;;;;;;;;;;4875642;29;20115;-82
2021/12/23 04:57:11;;;;;;;25.77;11.95;;;;;;;;;;4889301;29;20029;-82
2021/12/23 04:59:37;;;;;;;25.38;11.57;;;;;;;;;;4873562;29;20047;-82
2021/12/23 05:02:03;;;;;;;21.75;8.70;;;;;;;;;;4875300;29;20037;-82
2021/12/23 05:04:29;;;;;;;22.73;9.82;;;;;;;;;;4867363;29;20044;-82
2021/12/23 05:06:55;;;;;;;25.52;10.93;;;;;;;;;;4878488;29;20043;-83
2021/12/23 05:09:21;;;;;;;36.55;13.15;;;;;;;;;;4869669;29;20032;-82
2021/12/23 05:11:47;;;;;;;31.70;9.50;;;;;;;;;;4877385;29;20731;-83
2021/12/23 05:14:13;;;;;;;31.80;13.38;;;;;;;;;;4859457;29;20031;-82
2021/12/23 05:16:39;;;;;;;27.17;11.68;;;;;;;;;;4888059;29;20544;-82
2021/12/23 05:19:05;;;;;;;22.85;9.48;;;;;;;;;;4869075;29;20116;-82
2021/12/23 05:21:31;;;;;;;27.25;12.15;;;;;;;;;;4871195;29;20051;-83
2021/12/23 05:23:57;;;;;;;26.15;12.38;;;;;;;;;;4874103;29;20033;-82
2021/12/23 05:26:23;;;;;;;29.50;12.55;;;;;;;;;;4873104;29;20421;-82
2021/12/23 05:28:49;;;;;;;28.20;13.18;;;;;;;;;;4874803;29;20028;-82
2021/12/23 05:31:15;;;;;;;18.33;7.28;;;;;;;;;;4886336;29;20041;-83
2021/12/23 05:33:41;;;;;;;35.10;14.70;;;;;;;;;;4874209;29;20044;-82
2021/12/23 05:36:07;;;;;;;41.28;16.77;;;;;;;;;;4869600;29;20036;-82
2021/12/23 05:38:33;;;;;;;25.40;11.15;;;;;;;;;;4872873;29;20084;-82
2021/12/23 05:40:59;;;;;;;29.60;12.18;;;;;;;;;;4874506;29;20044;-82
2021/12/23 05:43:26;;;;;;;31.30;13.88;;;;;;;;;;4872682;29;20511;-82
2021/12/23 05:45:52;;;;;;;26.23;12.77;;;;;;;;;;4873985;29;20061;-82
2021/12/23 05:48:18;;;;;;;26.10;12.88;;;;;;;;;;4886550;29;20041;-81
2021/12/23 05:50:44;;;;;;;31.80;12.35;;;;;;;;;;4872548;29;20036;-83
2021/12/23 05:53:10;;;;;;;22.48;8.65;;;;;;;;;;4886348;29;20552;-82
2021/12/23 05:55:36;;;;;;;34.05;11.85;;;;;;;;;;4890877;29;20116;-82
2021/12/23 05:58:02;;;;;;;27.20;11.55;;;;;;;;;;4867088;29;20032;-83
2021/12/23 06:00:29;;;;;;;25.48;11.60;;;;;;;;;;4887914;29;20092;-82
2021/12/23 06:02:56;;;;;;;29.50;12.93;;;;;;;;;;4887389;29;20702;-82
2021/12/23 06:05:23;;;;;;;30.20;11.27;;;;;;;;;;4871933;29;20039;-80
2021/12/23 06:07:48;;;;;;;29.50;12.82;;;;;;;;;;4875631;29;20135;-80
2021/12/23 06:10:15;;;;;;;29.02;11.85;;;;;;;;;;4888710;29;20160;-80
2021/12/23 06:12:41;;;;;;;25.67;13.00;;;;;;;;;;4873244;29;20039;-80
2021/12/23 06:15:08;;;;;;;23.40;10.68;;;;;;;;;;4884228;29;20028;-80
2021/12/23 06:17:34;;;;;;;33.10;13.27;;;;;;;;;;4873199;29;20040;-80
2021/12/23 06:20:00;;;;;;;30.02;12.57;;;;;;;;;;4888521;29;20036;-80
2021/12/23 06:22:26;;;;;;;20.63;9.13;;;;;;;;;;4871886;29;20416;-79
2021/12/23 06:24:52;;;;;;;12.27;6.40;;;;;;;;;;4870735;29;20045;-80
2021/12/23 06:27:19;;;;;;;34.97;12.45;;;;;;;;;;4872476;29;20124;-79
2021/12/23 06:29:45;;;;;;;31.20;13.07;;;;;;;;;;4870432;29;20051;-80
2021/12/23 06:32:11;;;;;;;17.83;7.15;;;;;;;;;;4870798;29;20493;-79
2021/12/23 06:34:37;;;;;;;26.38;11.32;;;;;;;;;;4870706;29;20028;-79
2021/12/23 06:37:04;;;;;;;22.83;9.88;;;;;;;;;;4885785;29;20029;-79
2021/12/23 06:39:31;;;;;;;19.67;7.65;;;;;;;;;;4872069;29;20037;-79
2021/12/23 06:41:57;;;;;;;25.35;4.70;;;;;;;;;;4871533;29;20071;-80
2021/12/23 06:44:23;;;;;;;31.33;13.38;;;;;;;;;;4871901;28;20503;-79
2021/12/23 06:46:49;;;;;;;10.38;6.00;;;;;;;;;;4870577;29;20488;-80
2021/12/23 06:49:15;;;;;;;21.50;8.88;;;;;;;;;;4878548;29;20095;-79
2021/12/23 06:51:41;;;;;;;26.55;9.95;;;;;;;;;;4886867;29;20037;-80
2021/12/23 06:54:09;;;;;;;34.13;12.80;;;;;;;;;;4882763;29;20036;-79
2021/12/23 06:56:35;;;;;;;28.60;12.23;;;;;;;;;;4872451;29;20515;-79
2021/12/23 06:59:01;;;;;;;17.48;8.75;;;;;;;;;;4869114;29;20505;-79
2021/12/23 07:01:27;;;;;;;30.63;12.88;;;;;;;;;;4870337;29;20041;-79
2021/12/23 07:04:06;;;;;;;26.63;11.55;;;;;;;;;;4872520;29;20041;-79
2021/12/23 07:06:34;;;;;;;27.15;10.85;;;;;;;;;;4868655;29;20045;-79
2021/12/23 07:09:02;;;;;;;21.08;10.27;;;;;;;;;;4884590;29;20028;-80
2021/12/23 07:11:28;;;;;;;34.55;13.18;;;;;;;;;;4870851;29;20052;-79
2021/12/23 07:13:54;;;;;;;18.27;9.82;;;;;;;;;;4872373;29;20826;-79
2021/12/23 07:16:20;;;;;;;12.32;6.18;;;;;;;;;;4869914;29;20028;-82
2021/12/23 07:18:47;;;;;;;24.27;8.60;;;;;;;;;;4885305;29;20037;-82
2021/12/23 07:21:13;;;;;;;24.08;9.90;;;;;;;;;;4870070;29;20076;-82
2021/12/23 07:23:39;;;;;;;32.97;14.55;;;;;;;;;;4889906;29;20496;-82
2021/12/23 07:26:11;;;;;;;20.45;6.78;;;;;;;;;;4871023;29;20619;-82
2021/12/23 07:28:37;;;;;;;23.00;10.00;;;;;;;;;;4872310;29;20191;-79
2021/12/23 07:31:03;;;;;;;33.45;13.73;;;;;;;;;;4868996;29;20887;-79
2021/12/23 07:33:29;;;;;;;25.50;11.48;;;;;;;;;;4889938;29;20040;-80
2021/12/23 07:35:55;;;;;;;29.58;12.52;;;;;;;;;;4886444;29;20421;-80
2021/12/23 07:38:22;;;;;;;26.55;11.32;;;;;;;;;;4871773;29;20048;-79
2021/12/23 07:40:48;;;;;;;25.75;10.13;;;;;;;;;;4871444;29;20040;-79
2021/12/23 07:46:05;;;;;;;18.92;8.60;;;;;;;;;;4888362;29;20048;-79
2021/12/23 07:48:31;;;;;;;18.70;7.82;;;;;;;;;;4883205;29;20029;-79
2021/12/23 07:50:58;;;;;;;34.20;14.55;;;;;;;;;;4887780;29;20084;-79
2021/12/23 07:53:24;;;;;;;23.73;9.35;;;;;;;;;;4883941;29;20044;-79
2021/12/23 07:55:50;;;;;;;29.13;12.07;;;;;;;;;;4888607;29;20500;-80
2021/12/23 07:58:17;;;;;;;27.75;13.07;;;;;;;;;;4870040;29;20059;-80
2021/12/23 08:00:43;;;;;;;27.75;13.38;;;;;;;;;;4874022;29;20118;-80
2021/12/23 08:03:09;;;;;;;35.22;14.35;;;;;;;;;;4876446;29;20521;-79
2021/12/23 08:05:35;;;;;;;26.63;11.00;;;;;;;;;;4871281;29;20036;-79
2021/12/23 08:08:02;;;;;;;29.23;13.38;;;;;;;;;;4888493;29;20032;-79
2021/12/23 08:10:28;;;;;;;27.23;11.50;;;;;;;;;;4877161;29;20020;-80
2021/12/23 08:12:54;;;;;;;27.30;12.05;;;;;;;;;;4889889;29;20092;-79
2021/12/23 08:15:20;;;;;;;30.35;12.80;;;;;;;;;;4887597;29;20029;-79
2021/12/23 08:17:46;;;;;;;23.45;10.07;;;;;;;;;;4887537;29;20055;-80
2021/12/23 08:20:14;;;;;;;32.80;12.52;;;;;;;;;;4889333;29;20060;-79
2021/12/23 08:22:41;;;;;;;20.30;10.30;;;;;;;;;;4884923;29;20045;-79
2021/12/23 08:25:07;;;;;;;25.83;9.55;;;;;;;;;;4876227;29;20071;-80
2021/12/23 08:27:34;;;;;;;27.65;8.52;;;;;;;;;;4870617;29;20036;-79
2021/12/23 08:30:01;;;;;;;25.25;11.27;;;;;;;;;;4884193;29;20566;-79
2021/12/23 08:32:27;;;;;;;30.88;13.40;;;;;;;;;;4872052;29;20029;-79
2021/12/23 08:34:53;;;;;;;25.98;10.70;;;;;;;;;;4874233;29;20044;-79
2021/12/23 08:37:19;;;;;;;23.35;9.90;;;;;;;;;;4874196;29;20032;-80
2021/12/23 08:39:47;;;;;;;32.30;11.77;;;;;;;;;;4894787;29;20568;-79
2021/12/23 08:42:13;;;;;;;23.48;8.48;;;;;;;;;;4891009;29;21317;-79
2021/12/23 08:44:40;;;;;;;24.23;10.27;;;;;;;;;;4890331;28;20508;-79
2021/12/23 08:47:06;;;;;;;33.38;13.20;;;;;;;;;;4872822;29;20497;-80
2021/12/23 08:49:32;;;;;;;29.67;11.02;;;;;;;;;;4891091;29;20695;-79
2021/12/23 08:51:59;;;;;;;32.88;15.23;;;;;;;;;;4875780;29;20515;-79
2021/12/23 08:54:25;;;;;;;35.00;13.02;;;;;;;;;;4872580;29;20024;-79
2021/12/23 08:56:51;;;;;;;29.67;14.10;;;;;;;;;;4874590;29;20437;-79
2021/12/23 08:59:18;;;;;;;30.08;14.07;;;;;;;;;;4871375;29;20079;-79
2021/12/23 09:01:45;;;;;;;23.85;11.07;;;;;;;;;;4878336;29;20055;-79
2021/12/23 09:04:12;;;;;;;45.17;16.60;;;;;;;;;;4877674;29;20060;-80
2021/12/23 09:06:38;;;;;;;22.63;10.25;;;;;;;;;;4877766;29;20040;-80
2021/12/23 09:09:04;;;;;;;34.20;12.95;;;;;;;;;;4869649;29;20024;-79
2021/12/23 09:11:30;;;;;;;31.30;10.25;;;;;;;;;;4873517;29;20029;-79
2021/12/23 09:13:57;;;;;;;35.53;15.85;;;;;;;;;;4890701;29;20032;-79
2021/12/23 09:16:23;;;;;;;43.08;17.33;;;;;;;;;;4886163;29;20077;-79
2021/12/23 09:18:49;;;;;;;37.17;14.52;;;;;;;;;;4872631;29;20033;-80
2021/12/23 09:21:15;;;;;;;29.17;14.57;;;;;;;;;;4874712;29;20092;-79
2021/12/23 09:23:42;;;;;;;35.90;15.27;;;;;;;;;;4873990;29;20436;-79
2021/12/23 09:26:10;;;;;;;37.95;15.25;;;;;;;;;;4873478;29;20039;-80
2021/12/23 09:28:56;;;;;;;34.25;14.68;;;;;;;;;;4869217;29;20524;-79
2021/12/23 09:34:07;;;;;;;36.20;15.52;;;;;;;;;;4887961;29;20111;-79
2021/12/23 09:36:34;;;;;;;39.53;18.35;;;;;;;;;;4890289;29;20032;-79
2021/12/23 09:39:00;;;;;;;44.15;17.75;;;;;;;;;;4873779;29;20474;-79
2021/12/23 09:41:26;;;;;;;37.03;15.65;;;;;;;;;;4874981;29;20366;-79
2021/12/23 09:43:56;;;;;;;30.15;11.68;;;;;;;;;;4890045;29;20104;-79
2021/12/23 09:46:22;;;;;;;41.63;17.25;;;;;;;;;;4874187;29;20180;-80
2021/12/23 09:48:49;;;;;;;38.17;14.23;;;;;;;;;;4885109;29;20044;-80
2021/12/23 09:51:17;;;;;;;40.53;17.42;;;;;;;;;;4870667;29;20116;-80
2021/12/23 09:53:45;;;;;;;24.73;11.45;;;;;;;;;;4870106;29;20037;-80
2021/12/23 09:56:12;;;;;;;46.13;20.42;;;;;;;;;;4872182;29;20040;-81
2021/12/23 09:58:39;;;;;;;40.60;18.27;;;;;;;;;;4873424;29;20048;-79
2021/12/23 10:01:05;;;;;;;52.17;21.02;;;;;;;;;;4869148;29;20028;-80
2021/12/23 10:03:32;;;;;;;42.17;17.52;;;;;;;;;;4870739;29;20040;-80
2021/12/23 10:05:59;;;;;;;52.35;19.30;;;;;;;;;;4869257;29;20528;-80
2021/12/23 10:08:25;;;;;;;60.03;21.48;;;;;;;;;;4887226;29;20355;-80
2021/12/23 10:10:57;;;;;;;41.40;16.58;;;;;;;;;;4872694;29;20111;-80
2021/12/23 10:32:28;;;;;;;31.55;13.20;;;;;;;;;;4888530;29;20175;-80
2021/12/23 10:37:31;;;;;;;45.58;15.10;;;;;;;;;;4887734;29;20044;-80
2021/12/23 10:40:03;;;;;;;59.17;21.50;;;;;;;;;;4870375;29;20036;-80
2021/12/23 10:42:30;;;;;;;29.15;13.40;;;;;;;;;;4872188;29;20071;-80
2021/12/23 10:44:58;;;;;;;59.78;19.75;;;;;;;;;;4867919;29;20053;-80
2021/12/23 10:47:35;;;;;;;50.15;18.05;;;;;;;;;;4874248;29;20399;-80
2021/12/23 10:50:23;;;;;;;54.50;16.45;;;;;;;;;;4882496;29;20041;-80
2021/12/23 10:52:54;;;;;;;38.60;10.00;;;;;;;;;;4859035;29;20032;-80
2021/12/23 10:58:07;;;;;;;54.15;21.55;;;;;;;;;;4886077;29;20033;-80
2021/12/23 11:00:33;;;;;;;;;;;;;;;;;;4888773;29;20032;-81
2021/12/23 11:03:14;;;;;;;71.57;25.85;;;;;;;;;;4870254;29;19912;-80
2021/12/23 11:05:48;;;;;;;60.28;22.48;;;;;;;;;;4888106;29;20048;-80
2021/12/23 11:38:27;;;;;;;34.20;12.10;;;;;;;;;;4866846;29;20132;-82
2021/12/23 11:40:57;;;;;;;78.43;27.13;;;;;;;;;;4890422;29;20033;-81
2021/12/23 11:43:43;;;;;;;42.83;16.52;;;;;;;;;;4873572;28;20503;-80
2021/12/23 11:46:09;;;;;;;;;;;;;;;;;;4889378;29;20029;-81
2021/12/23 11:48:41;;;;;;;53.05;19.70;;;;;;;;;;4889849;29;19931;-80
2021/12/23 11:51:14;;;;;;;33.85;13.68;;;;;;;;;;4872892;29;20132;-81
2021/12/23 11:53:40;;;;;;;59.00;18.63;;;;;;;;;;4894911;29;20057;-81
2021/12/23 11:56:09;;;;;;;66.30;23.67;;;;;;;;;;4874508;29;20029;-81
2021/12/23 11:58:35;;;;;;;58.08;22.95;;;;;;;;;;4874500;29;20537;-81
2021/12/23 12:01:02;;;;;;;55.92;19.48;;;;;;;;;;4870383;29;20140;-80
2021/12/23 12:03:28;;;;;;;46.53;16.50;;;;;;;;;;4870337;29;20124;-80
2021/12/23 12:06:12;;;;;;;65.18;24.52;;;;;;;;;;4871086;29;20037;-81
2021/12/23 12:08:38;;;;;;;58.85;21.73;;;;;;;;;;4873747;29;20510;-80
2021/12/23 12:11:33;;;;;;;70.63;25.98;;;;;;;;;;4870769;29;20041;-81
2021/12/23 12:13:59;;;;;;;63.67;21.48;;;;;;;;;;4881001;29;20081;-81
2021/12/23 12:16:32;;;;;;;73.22;26.50;;;;;;;;;;4877695;29;20127;-80
2021/12/23 12:18:59;;;;;;;65.65;23.30;;;;;;;;;;4885705;29;20033;-81
2021/12/23 12:21:33;;;;;;;77.82;26.83;;;;;;;;;;4873985;29;20091;-80
2021/12/23 12:24:09;;;;;;;65.90;23.58;;;;;;;;;;4869998;29;20033;-81
2021/12/23 12:26:37;;;;;;;75.35;28.13;;;;;;;;;;4887995;29;20088;-81
2021/12/23 12:29:05;;;;;;;63.58;24.70;;;;;;;;;;4875525;29;20135;-81
2021/12/23 12:31:39;;;;;;;64.82;25.92;;;;;;;;;;4884002;29;20036;-81
2021/12/23 12:34:06;;;;;;;47.45;17.65;;;;;;;;;;4884843;29;20043;-80
2021/12/23 12:36:39;;;;;;;73.93;27.05;;;;;;;;;;4873724;29;20033;-81
2021/12/23 12:39:08;;;;;;;64.00;25.58;;;;;;;;;;4874532;29;20029;-82
2021/12/23 12:41:35;;;;;;;62.53;23.30;;;;;;;;;;4886159;29;20033;-81
2021/12/23 12:44:12;;;;;;;64.38;24.33;;;;;;;;;;4871403;29;20041;-80
2021/12/23 12:46:53;;;;;;;67.43;26.10;;;;;;;;;;4872087;29;20041;-81
2021/12/23 12:49:28;;;;;;;72.60;25.55;;;;;;;;;;4885154;29;20548;-81
2021/12/23 12:52:17;;;;;;;73.70;24.98;;;;;;;;;;4874591;29;20029;-81
2021/12/23 12:55:05;;;;;;;57.13;23.27;;;;;;;;;;4868473;29;20044;-80
2021/12/23 12:57:35;;;;;;;70.93;23.75;;;;;;;;;;4883898;29;20329;-81
2021/12/23 13:00:17;;;;;;;66.07;22.45;;;;;;;;;;4874139;29;20083;-80
2021/12/23 13:02:48;;;;;;;66.57;25.80;;;;;;;;;;4883390;29;20513;-81
2021/12/23 13:05:21;;;;;;;61.05;22.40;;;;;;;;;;4869803;29;20085;-81
2021/12/23 13:07:49;;;;;;;77.60;26.92;;;;;;;;;;4880942;29;20036;-81
2021/12/23 13:10:21;;;;;;;80.63;28.30;;;;;;;;;;4868506;29;20048;-81
2021/12/23 13:12:52;;;;;;;79.55;24.02;;;;;;;;;;4889832;29;20480;-80
2021/12/23 13:15:20;;;;;;;82.82;24.77;;;;;;;;;;4868006;29;20119;-80
2021/12/23 13:17:58;;;;;;;82.45;29.05;;;;;;;;;;4873587;29;20032;-80
2021/12/23 13:20:41;;;;;;;51.92;19.25;;;;;;;;;;4884478;29;20465;-81
2021/12/23 13:23:34;;;;;;;76.43;26.40;;;;;;;;;;4873752;29;20044;-81
2021/12/23 13:26:10;;;;;;;55.50;20.60;;;;;;;;;;4871111;29;20047;-80
2021/12/23 13:28:43;;;;;;;84.95;28.63;;;;;;;;;;4883626;29;20081;-82
2021/12/23 13:31:10;;;;;;;81.10;26.52;;;;;;;;;;4883286;29;20511;-80
2021/12/23 13:33:40;;;;;;;75.53;26.13;;;;;;;;;;4872160;29;20180;-80
2021/12/23 13:36:22;;;;;;;72.75;25.05;;;;;;;;;;4886144;29;20044;-80
2021/12/23 13:38:49;;;;;;;78.50;25.75;;;;;;;;;;4885361;29;20112;-80
2021/12/23 13:41:19;;;;;;;77.82;27.38;;;;;;;;;;4884333;29;20459;-80
2021/12/23 13:43:53;;;;;;;88.57;27.52;;;;;;;;;;4887367;28;20945;-81
2021/12/23 13:46:27;;;;;;;72.82;24.58;;;;;;;;;;4871736;29;20045;-80
2021/12/23 13:49:00;;;;;;;69.80;24.73;;;;;;;;;;4883626;29;20028;-80
2021/12/23 13:51:29;;;;;;;68.68;24.23;;;;;;;;;;4885972;29;20032;-80
2021/12/23 13:54:09;;;;;;;87.03;27.67;;;;;;;;;;4868673;29;20300;-81
2021/12/23 13:56:36;;;;;;;95.63;27.92;;;;;;;;;;4866684;29;20043;-80
2021/12/23 13:59:25;;;;;;;94.70;28.23;;;;;;;;;;4889107;29;20040;-81
2021/12/23 14:02:03;;;;;;;83.57;29.38;;;;;;;;;;4865620;29;20508;-80
2021/12/23 14:04:32;;;;;;;75.72;26.77;;;;;;;;;;4879726;29;20041;-80
2021/12/23 14:06:58;;;;;;;70.55;22.17;;;;;;;;;;4889043;29;20025;-80
2021/12/23 14:09:50;;;;;;;66.90;24.98;;;;;;;;;;4883557;29;20380;-80
2021/12/23 14:12:21;;;;;;;70.68;25.98;;;;;;;;;;4866784;29;20048;-80
2021/12/23 14:14:58;;;;;;;59.05;20.45;;;;;;;;;;4888613;29;20408;-80
2021/12/23 14:17:29;;;;;;;67.10;22.38;;;;;;;;;;4888396;29;20067;-80
2021/12/23 14:23:17;;;;;;;76.97;26.77;;;;;;;;;;4888000;29;20051;-80
2021/12/23 14:25:43;;;;;;;55.78;21.10;;;;;;;;;;4872707;29;20045;-80
2021/12/23 14:28:10;;;;;;;77.90;25.40;;;;;;;;;;4872614;29;20044;-80
2021/12/23 14:30:37;;;;;;;73.10;18.08;;;;;;;;;;4867865;29;20052;-80
2021/12/23 14:33:08;;;;;;;36.47;12.80;;;;;;;;;;4889152;29;20024;-81
2021/12/23 14:35:34;;;;;;;49.92;17.77;;;;;;;;;;4886385;29;20033;-81
2021/12/23 14:38:01;;;;;;;77.32;23.55;;;;;;;;;;4883580;29;20021;-80
2021/12/23 14:40:27;;;;;;;61.47;20.55;;;;;;;;;;4882792;29;20122;-80
2021/12/23 14:42:57;;;;;;;87.13;28.50;;;;;;;;;;4870486;29;20028;-81
2021/12/23 14:45:23;;;;;;;58.25;17.75;;;;;;;;;;4873733;29;20420;-80
2021/12/23 14:48:09;;;;;;;50.67;15.38;;;;;;;;;;4867201;29;20057;-81
2021/12/23 14:50:38;;;;;;;73.35;24.10;;;;;;;;;;4885021;29;20108;-80
2021/12/23 14:53:16;;;;;;;85.68;25.60;;;;;;;;;;4866952;29;20512;-80
2021/12/23 14:55:42;;;;;;;90.47;29.55;;;;;;;;;;4887725;29;20520;-81
2021/12/23 14:58:13;;;;;;;66.53;18.30;;;;;;;;;;4869436;29;20028;-80
2021/12/23 15:00:42;;;;;;;57.58;20.67;;;;;;;;;;4886411;29;20043;-80
2021/12/23 15:03:08;;;;;;;83.68;26.23;;;;;;;;;;4866317;29;20048;-81
2021/12/23 15:05:37;;;;;;;75.60;26.27;;;;;;;;;;4866054;29;20055;-80
2021/12/23 15:08:03;;;;;;;38.88;14.75;;;;;;;;;;4870373;29;20064;-81
2021/12/23 15:10:31;;;;;;;82.57;26.63;;;;;;;;;;4865565;29;20062;-80
2021/12/23 15:12:59;;;;;;;84.65;26.58;;;;;;;;;;4885292;29;20060;-80
2021/12/23 15:15:29;;;;;;;61.25;20.45;;;;;;;;;;4871903;29;20032;-80
2021/12/23 15:18:01;;;;;;;46.97;16.70;;;;;;;;;;4886044;29;20076;-80
2021/12/23 15:20:30;;;;;;;113.25;29.15;;;;;;;;;;4868165;29;20131;-81
2021/12/23 15:23:00;;;;;;;66.95;20.60;;;;;;;;;;4885933;29;20691;-80
2021/12/23 15:25:35;;;;;;;91.82;30.30;;;;;;;;;;4882304;29;20043;-81
2021/12/23 15:28:01;;;;;;;75.28;22.02;;;;;;;;;;4867708;29;20040;-80
2021/12/23 15:30:29;;;;;;;74.05;23.27;;;;;;;;;;4866925;29;20096;-80
2021/12/23 15:32:56;;;;;;;110.03;32.13;;;;;;;;;;4868472;29;20116;-80